Virginia — WCW4062 — position and weather

sailwx.info

Track history (hours):
 
Tides and Currents Weather Stations Pressure Air Temp Water Temp Dewpoint Dewpoint Depression Visibility Wind Speed Wind Dir Waves Ship Positions

Virginia

Owner: WEEKS MARINE, INC., CRANFORD, NJ. More information available from US FCC via Universal Licensing System and Coast Guard Vessel Documentation Center.

Last reported at 2015-Jul-29 23:33 UTC. Time now 2015-Jul-30 00:02 UTC.
Position N 40°31' W 074°15'.

MMSI: 366939110.

Date/timePositionNaut miles runAvg speedWind from/ knotsBaromVisibWave heightAir tempDewpointWater temp
2015-Jul-29 23:33N 40°31' W 074°15'0 0.0
2015-Jul-29 15:06N 40°31' W 074°15'0 0.0
2015-Jul-29 14:25N 40°31' W 074°15'0 0.0
2015-Jul-29 11:27N 40°31' W 074°15'0 0.0
2015-Jul-29 10:33N 40°31' W 074°15'1 0.7
2015-Jul-29 09:33N 40°32' W 074°15'7 7.2
2015-Jul-29 08:33N 40°38' W 074°12'6 5.9
2015-Jul-29 07:33N 40°41' W 074°04'0 0.0
2015-Jul-29 06:33N 40°41' W 074°04'0 0.0
2015-Jul-29 05:33N 40°41' W 074°04'0 0.0
2015-Jul-29 04:33N 40°41' W 074°04'0 0.0
2015-Jul-29 03:33N 40°41' W 074°04'0 0.0
2015-Jul-29 02:33N 40°41' W 074°04'0 0.0
2015-Jul-29 01:33N 40°41' W 074°04'0 0.0
2015-Jul-29 00:33N 40°41' W 074°04'0 0.0
2015-Jul-28 23:33N 40°41' W 074°04'0 0.0
2015-Jul-28 22:33N 40°41' W 074°04'0 0.1
2015-Jul-28 21:33N 40°41' W 074°04'0 0.0
2015-Jul-28 20:33N 40°41' W 074°04'0 0.0
2015-Jul-28 19:33N 40°41' W 074°04'2 2.4
2015-Jul-28 18:33N 40°39' W 074°07'4 4.0
2015-Jul-28 17:33N 40°38' W 074°12'0 0.0
2015-Jul-28 16:33N 40°38' W 074°12'0 0.0
2015-Jul-28 15:33N 40°38' W 074°12'4 4.1
2015-Jul-28 14:33N 40°42' W 074°09'0 0.3
2015-Jul-28 13:33N 40°42' W 074°08'4 3.7
2015-Jul-28 12:33N 40°40' W 074°04'0 0.5
2015-Jul-28 11:33N 40°41' W 074°04'0 0.0
2015-Jul-28 10:33N 40°41' W 074°04'0 0.0
2015-Jul-28 09:33N 40°41' W 074°04'0 0.0
2015-Jul-28 08:33N 40°41' W 074°04'0 0.1
2015-Jul-28 07:33N 40°41' W 074°04'0 0.0
2015-Jul-28 06:33N 40°41' W 074°04'0 0.0
2015-Jul-28 05:33N 40°41' W 074°04'0 0.0
2015-Jul-28 04:33N 40°41' W 074°04'0 0.0
2015-Jul-28 03:33N 40°41' W 074°04'0 0.0
2015-Jul-28 02:33N 40°41' W 074°04'0 0.0
2015-Jul-28 01:33N 40°41' W 074°04'0 0.0
2015-Jul-28 00:33N 40°41' W 074°04'0 0.0
2015-Jul-27 23:33N 40°41' W 074°04'0 0.1
2015-Jul-27 22:33N 40°40' W 074°04'0 0.1
2015-Jul-27 21:33N 40°41' W 074°04'0 0.0
2015-Jul-27 20:33N 40°41' W 074°04'0 0.0
2015-Jul-27 19:33N 40°41' W 074°04'0 0.0
2015-Jul-27 18:33N 40°41' W 074°04'0 0.0
2015-Jul-27 17:33N 40°41' W 074°04'0 0.0
2015-Jul-27 16:33N 40°41' W 074°04'0 0.1
2015-Jul-27 15:33N 40°41' W 074°05'2 2.4
2015-Jul-27 14:33N 40°38' W 074°03'6 5.6
2015-Jul-27 13:33N 40°33' W 074°02'7 6.1
2015-Jul-27 12:29N 40°28' W 073°57'39 8.0
2015-Jul-27 07:33N 39°49' W 074°04'8 8.0
2015-Jul-27 06:33N 39°41' W 074°06'8 8.3
2015-Jul-27 05:33N 39°34' W 074°11'8 8.1
2015-Jul-27 04:33N 39°26' W 074°16'8 8.3
2015-Jul-27 03:33N 39°19' W 074°22'8 8.3
2015-Jul-27 02:33N 39°13' W 074°29'8 8.3
2015-Jul-27 01:33N 39°07' W 074°35'9 8.7
2015-Jul-27 00:33N 38°60' W 074°42'9 8.7
2015-Jul-26 23:33N 38°52' W 074°48'8 8.1
2015-Jul-26 22:33N 38°49' W 074°57'6 5.9
2015-Jul-26 21:33N 38°52' W 075°04'6 5.7
2015-Jul-26 20:33N 38°57' W 075°07'5 5.3
2015-Jul-26 19:33N 39°02' W 075°10'6 5.6
2015-Jul-26 18:33N 39°07' W 075°13'7 6.9
2015-Jul-26 17:33N 39°13' W 075°18'9 8.8
2015-Jul-26 16:33N 39°20' W 075°25'10 9.9
2015-Jul-26 15:33N 39°27' W 075°33'9 9.1
2015-Jul-26 14:33N 39°36' W 075°34'8 7.9
2015-Jul-26 13:33N 39°43' W 075°30'7 6.7
2015-Jul-26 12:33N 39°49' W 075°24'6 5.7
2015-Jul-26 11:33N 39°51' W 075°17'6 5.9
2015-Jul-26 10:33N 39°53' W 075°10'5 4.7
2015-Jul-26 09:33N 39°57' W 075°08'0 0.0
2015-Jul-26 08:33N 39°57' W 075°08'0 0.0
2015-Jul-26 07:33N 39°57' W 075°08'0 0.0
2015-Jul-26 06:33N 39°57' W 075°08'0 0.0
2015-Jul-26 05:33N 39°57' W 075°08'0 0.0
2015-Jul-26 04:33N 39°57' W 075°08'0 0.0
2015-Jul-26 03:33N 39°57' W 075°08'0 0.0
2015-Jul-26 02:33N 39°57' W 075°08'0 0.0
2015-Jul-26 01:33N 39°57' W 075°08'0 0.0
2015-Jul-26 00:33N 39°57' W 075°08'0 0.0
2015-Jul-25 23:33N 39°57' W 075°08'0 0.0
2015-Jul-25 22:33N 39°57' W 075°08'0 0.0
2015-Jul-25 21:33N 39°57' W 075°08'0 0.1
2015-Jul-25 20:33N 39°57' W 075°08'0 0.0
2015-Jul-25 19:33N 39°57' W 075°08'0 0.0
2015-Jul-25 18:33N 39°57' W 075°08'0 0.0
2015-Jul-25 17:33N 39°57' W 075°08'0 0.0
2015-Jul-25 16:33N 39°57' W 075°08'0 0.0
2015-Jul-25 15:33N 39°57' W 075°08'0 0.0
2015-Jul-25 14:33N 39°57' W 075°08'0 0.0
2015-Jul-25 13:33N 39°57' W 075°08'0 0.0
2015-Jul-25 12:33N 39°57' W 075°08'0 0.0
2015-Jul-25 11:33N 39°57' W 075°08'0 0.0
2015-Jul-25 10:33N 39°57' W 075°08'0 0.0
2015-Jul-25 09:33N 39°57' W 075°08'0 0.0
2015-Jul-25 08:33N 39°57' W 075°08'0 0.0
2015-Jul-25 07:33N 39°57' W 075°08'0 0.0
2015-Jul-25 06:33N 39°57' W 075°08'0 0.0
2015-Jul-25 05:33N 39°57' W 075°08'0 0.0
2015-Jul-25 04:33N 39°57' W 075°08'0 0.0
2015-Jul-25 03:33N 39°57' W 075°08'0 0.0
2015-Jul-25 02:33N 39°57' W 075°08'0 0.0
2015-Jul-25 01:33N 39°57' W 075°08'0 0.0
2015-Jul-25 00:33N 39°57' W 075°08'0 0.0
2015-Jul-24 23:33N 39°57' W 075°08'0 0.0
2015-Jul-24 22:33N 39°57' W 075°08'0 0.0
2015-Jul-24 21:33N 39°57' W 075°08'0 0.0
2015-Jul-24 20:33N 39°57' W 075°08'0 0.0
2015-Jul-24 19:33N 39°57' W 075°08'0 0.0
2015-Jul-24 18:33N 39°57' W 075°08'0 0.0
2015-Jul-24 17:33N 39°57' W 075°08'0 0.0
2015-Jul-24 16:33N 39°57' W 075°08'0 0.0
2015-Jul-24 15:33N 39°57' W 075°08'0 0.0
2015-Jul-24 14:33N 39°57' W 075°08'0 0.0
2015-Jul-24 13:33N 39°57' W 075°08'0 0.0
2015-Jul-24 12:33N 39°57' W 075°08'0 0.0
2015-Jul-24 11:33N 39°57' W 075°08'0 0.0
2015-Jul-24 10:33N 39°57' W 075°08'0 0.0
2015-Jul-24 09:33N 39°57' W 075°08'1 0.6
2015-Jul-24 08:33N 39°57' W 075°08'4 4.4
2015-Jul-24 07:33N 39°53' W 075°10'4 4.4
2015-Jul-24 06:33N 39°51' W 075°16'4 3.5
2015-Jul-24 05:33N 39°51' W 075°20'2 1.7
2015-Jul-24 04:33N 39°50' W 075°22'0 0.2
2015-Jul-24 03:33N 39°49' W 075°22'0 0.2
2015-Jul-24 02:33N 39°50' W 075°22'0 0.2
2015-Jul-24 01:33N 39°49' W 075°22'0 0.2
2015-Jul-24 00:33N 39°50' W 075°22'3 3.0
2015-Jul-23 23:33N 39°48' W 075°25'1 1.1
2015-Jul-23 22:33N 39°49' W 075°24'2 1.9
2015-Jul-23 21:33N 39°49' W 075°22'3 3.0
2015-Jul-23 20:33N 39°48' W 075°25'0 0.0
2015-Jul-23 19:33N 39°48' W 075°25'0 0.0
2015-Jul-23 18:33N 39°48' W 075°25'0 0.0
2015-Jul-23 17:33N 39°48' W 075°25'0 0.0
2015-Jul-23 16:33N 39°48' W 075°25'0 0.0
2015-Jul-23 15:33N 39°48' W 075°25'0 0.0
2015-Jul-23 14:33N 39°48' W 075°25'0 0.0
2015-Jul-23 13:33N 39°48' W 075°25'0 0.4
2015-Jul-23 12:33N 39°48' W 075°25'0 0.2
2015-Jul-23 11:33N 39°49' W 075°25'1 0.9
2015-Jul-23 10:33N 39°49' W 075°24'2 1.6
2015-Jul-23 09:33N 39°49' W 075°22'3 2.7
2015-Jul-23 08:33N 39°48' W 075°25'0 0.0
2015-Jul-23 07:33N 39°48' W 075°25'0 0.1
2015-Jul-23 06:33N 39°49' W 075°25'0 0.0
2015-Jul-23 05:33N 39°49' W 075°25'1 0.5
2015-Jul-23 04:33N 39°48' W 075°24'1 0.5
2015-Jul-23 03:33N 39°49' W 075°25'0 0.0
2015-Jul-23 02:33N 39°49' W 075°25'1 1.3
2015-Jul-23 01:33N 39°49' W 075°23'1 1.4
2015-Jul-23 00:33N 39°48' W 075°25'0 0.1
2015-Jul-22 23:33N 39°49' W 075°25'0 0.3
2015-Jul-22 22:33N 39°49' W 075°25'2 2.0
2015-Jul-22 21:33N 39°50' W 075°22'2 2.4
2015-Jul-22 20:33N 39°48' W 075°25'0 0.4
2015-Jul-22 19:33N 39°48' W 075°24'0 0.4
2015-Jul-22 18:33N 39°48' W 075°25'0 0.0
2015-Jul-22 17:33N 39°48' W 075°25'0 0.0
2015-Jul-22 16:33N 39°48' W 075°25'0 0.0
2015-Jul-22 15:33N 39°48' W 075°25'0 0.0
2015-Jul-22 14:33N 39°48' W 075°25'0 0.0
2015-Jul-22 13:33N 39°48' W 075°25'0 0.0
2015-Jul-22 12:33N 39°48' W 075°25'0 0.0
2015-Jul-22 11:33N 39°48' W 075°25'1 0.5
2015-Jul-22 10:33N 39°49' W 075°24'1 0.6
2015-Jul-22 09:33N 39°48' W 075°24'1 0.6
2015-Jul-22 08:33N 39°48' W 075°25'0 0.1
2015-Jul-22 07:33N 39°48' W 075°25'0 0.0
2015-Jul-22 06:33N 39°48' W 075°25'0 0.3
2015-Jul-22 05:33N 39°49' W 075°25'1 0.7
2015-Jul-22 04:33N 39°48' W 075°25'1 0.7
2015-Jul-22 03:33N 39°49' W 075°25'0 0.1
2015-Jul-22 02:33N 39°49' W 075°25'1 0.7
2015-Jul-22 01:33N 39°49' W 075°24'1 1.3
2015-Jul-22 00:33N 39°48' W 075°25'1 0.7
2015-Jul-21 23:33N 39°49' W 075°25'0 0.4
2015-Jul-21 22:33N 39°49' W 075°24'2 2.2
2015-Jul-21 21:33N 39°49' W 075°22'3 2.6
2015-Jul-21 20:33N 39°49' W 075°25'0 0.1
2015-Jul-21 19:33N 39°48' W 075°25'0 0.1
2015-Jul-21 18:33N 39°49' W 075°25'0 0.0
2015-Jul-21 17:33N 39°49' W 075°25'0 0.0
2015-Jul-21 16:33N 39°49' W 075°25'0 0.0
2015-Jul-21 15:33N 39°49' W 075°25'0 0.0
2015-Jul-21 14:33N 39°49' W 075°25'0 0.0
2015-Jul-21 13:33N 39°49' W 075°25'0 0.0
2015-Jul-21 12:33N 39°49' W 075°25'0 0.2
2015-Jul-21 11:33N 39°48' W 075°25'2 2.2
2015-Jul-21 10:33N 39°50' W 075°23'1 0.7
2015-Jul-21 09:33N 39°49' W 075°22'3 2.8
2015-Jul-21 08:33N 39°48' W 075°25'0 0.1
2015-Jul-21 07:33N 39°48' W 075°25'1 0.6
2015-Jul-21 06:33N 39°49' W 075°24'1 0.6
2015-Jul-21 05:33N 39°48' W 075°25'0 0.0
2015-Jul-21 04:33N 39°48' W 075°25'0 0.1
2015-Jul-21 03:33N 39°48' W 075°25'0 0.0
2015-Jul-21 02:33N 39°48' W 075°25'0 0.0
2015-Jul-21 01:33N 39°48' W 075°25'0 0.1
2015-Jul-21 00:33N 39°48' W 075°25'0 0.1
2015-Jul-20 23:33N 39°48' W 075°25'0 0.0
2015-Jul-20 22:33N 39°48' W 075°25'1 1.2
2015-Jul-20 21:33N 39°49' W 075°24'1 1.2
2015-Jul-20 20:33N 39°48' W 075°25'0 0.0
2015-Jul-20 19:33N 39°48' W 075°25'0 0.0
2015-Jul-20 18:33N 39°48' W 075°25'0 0.0
2015-Jul-20 17:33N 39°48' W 075°25'0 0.0
2015-Jul-20 16:33N 39°48' W 075°25'0 0.0
2015-Jul-20 15:33N 39°48' W 075°25'0 0.1
2015-Jul-20 14:33N 39°48' W 075°25'0 0.2
2015-Jul-20 13:33N 39°48' W 075°25'0 0.2
2015-Jul-20 12:33N 39°48' W 075°25'0 0.0
2015-Jul-20 11:33N 39°48' W 075°25'1 1.2
2015-Jul-20 10:33N 39°49' W 075°24'1 0.7
2015-Jul-20 09:33N 39°48' W 075°24'0 0.5
2015-Jul-20 08:33N 39°48' W 075°25'0 0.1
2015-Jul-20 07:33N 39°48' W 075°25'1 1.2
2015-Jul-20 06:33N 39°49' W 075°24'1 0.8
2015-Jul-20 05:33N 39°49' W 075°25'0 0.4
2015-Jul-20 04:33N 39°48' W 075°25'0 0.0
2015-Jul-20 03:33N 39°48' W 075°25'1 0.7
2015-Jul-20 02:33N 39°49' W 075°24'1 0.7
2015-Jul-20 01:33N 39°48' W 075°25'0 0.0
2015-Jul-20 00:33N 39°48' W 075°25'0 0.0
2015-Jul-19 23:33N 39°48' W 075°25'  
Track history (hours):
 
Tides and Currents Weather Stations Pressure Air Temp Water Temp Dewpoint Dewpoint Depression Visibility Wind Speed Wind Dir Waves Ship Positions

Virginia

Owner: WEEKS MARINE, INC., CRANFORD, NJ. More information available from US FCC via Universal Licensing System and Coast Guard Vessel Documentation Center.

Last reported at 2015-Jul-29 23:33 UTC. Time now 2015-Jul-30 00:02 UTC.
Position N 40°31' W 074°15'.

MMSI: 366939110.

Date/timePositionNaut miles runAvg speedWind from/ knotsBaromVisibWave heightAir tempDewpointWater temp
2015-Jul-29 23:33N 40°31' W 074°15'0 0.0
2015-Jul-29 15:06N 40°31' W 074°15'0 0.0
2015-Jul-29 14:25N 40°31' W 074°15'0 0.0
2015-Jul-29 11:27N 40°31' W 074°15'0 0.0
2015-Jul-29 10:33N 40°31' W 074°15'1 0.7
2015-Jul-29 09:33N 40°32' W 074°15'7 7.2
2015-Jul-29 08:33N 40°38' W 074°12'6 5.9
2015-Jul-29 07:33N 40°41' W 074°04'0 0.0
2015-Jul-29 06:33N 40°41' W 074°04'0 0.0
2015-Jul-29 05:33N 40°41' W 074°04'0 0.0
2015-Jul-29 04:33N 40°41' W 074°04'0 0.0
2015-Jul-29 03:33N 40°41' W 074°04'0 0.0
2015-Jul-29 02:33N 40°41' W 074°04'0 0.0
2015-Jul-29 01:33N 40°41' W 074°04'0 0.0
2015-Jul-29 00:33N 40°41' W 074°04'0 0.0
2015-Jul-28 23:33N 40°41' W 074°04'0 0.0
2015-Jul-28 22:33N 40°41' W 074°04'0 0.1
2015-Jul-28 21:33N 40°41' W 074°04'0 0.0
2015-Jul-28 20:33N 40°41' W 074°04'0 0.0
2015-Jul-28 19:33N 40°41' W 074°04'2 2.4
2015-Jul-28 18:33N 40°39' W 074°07'4 4.0
2015-Jul-28 17:33N 40°38' W 074°12'0 0.0
2015-Jul-28 16:33N 40°38' W 074°12'0 0.0
2015-Jul-28 15:33N 40°38' W 074°12'4 4.1
2015-Jul-28 14:33N 40°42' W 074°09'0 0.3
2015-Jul-28 13:33N 40°42' W 074°08'4 3.7
2015-Jul-28 12:33N 40°40' W 074°04'0 0.5
2015-Jul-28 11:33N 40°41' W 074°04'0 0.0
2015-Jul-28 10:33N 40°41' W 074°04'0 0.0
2015-Jul-28 09:33N 40°41' W 074°04'0 0.0
2015-Jul-28 08:33N 40°41' W 074°04'0 0.1
2015-Jul-28 07:33N 40°41' W 074°04'0 0.0
2015-Jul-28 06:33N 40°41' W 074°04'0 0.0
2015-Jul-28 05:33N 40°41' W 074°04'0 0.0
2015-Jul-28 04:33N 40°41' W 074°04'0 0.0
2015-Jul-28 03:33N 40°41' W 074°04'0 0.0
2015-Jul-28 02:33N 40°41' W 074°04'0 0.0
2015-Jul-28 01:33N 40°41' W 074°04'0 0.0
2015-Jul-28 00:33N 40°41' W 074°04'0 0.0
2015-Jul-27 23:33N 40°41' W 074°04'0 0.1
2015-Jul-27 22:33N 40°40' W 074°04'0 0.1
2015-Jul-27 21:33N 40°41' W 074°04'0 0.0
2015-Jul-27 20:33N 40°41' W 074°04'0 0.0
2015-Jul-27 19:33N 40°41' W 074°04'0 0.0
2015-Jul-27 18:33N 40°41' W 074°04'0 0.0
2015-Jul-27 17:33N 40°41' W 074°04'0 0.0
2015-Jul-27 16:33N 40°41' W 074°04'0 0.1
2015-Jul-27 15:33N 40°41' W 074°05'2 2.4
2015-Jul-27 14:33N 40°38' W 074°03'6 5.6
2015-Jul-27 13:33N 40°33' W 074°02'7 6.1
2015-Jul-27 12:29N 40°28' W 073°57'39 8.0
2015-Jul-27 07:33N 39°49' W 074°04'8 8.0
2015-Jul-27 06:33N 39°41' W 074°06'8 8.3
2015-Jul-27 05:33N 39°34' W 074°11'8 8.1
2015-Jul-27 04:33N 39°26' W 074°16'8 8.3
2015-Jul-27 03:33N 39°19' W 074°22'8 8.3
2015-Jul-27 02:33N 39°13' W 074°29'8 8.3
2015-Jul-27 01:33N 39°07' W 074°35'9 8.7
2015-Jul-27 00:33N 38°60' W 074°42'9 8.7
2015-Jul-26 23:33N 38°52' W 074°48'8 8.1
2015-Jul-26 22:33N 38°49' W 074°57'6 5.9
2015-Jul-26 21:33N 38°52' W 075°04'6 5.7
2015-Jul-26 20:33N 38°57' W 075°07'5 5.3
2015-Jul-26 19:33N 39°02' W 075°10'6 5.6
2015-Jul-26 18:33N 39°07' W 075°13'7 6.9
2015-Jul-26 17:33N 39°13' W 075°18'9 8.8
2015-Jul-26 16:33N 39°20' W 075°25'10 9.9
2015-Jul-26 15:33N 39°27' W 075°33'9 9.1
2015-Jul-26 14:33N 39°36' W 075°34'8 7.9
2015-Jul-26 13:33N 39°43' W 075°30'7 6.7
2015-Jul-26 12:33N 39°49' W 075°24'6 5.7
2015-Jul-26 11:33N 39°51' W 075°17'6 5.9
2015-Jul-26 10:33N 39°53' W 075°10'5 4.7
2015-Jul-26 09:33N 39°57' W 075°08'0 0.0
2015-Jul-26 08:33N 39°57' W 075°08'0 0.0
2015-Jul-26 07:33N 39°57' W 075°08'0 0.0
2015-Jul-26 06:33N 39°57' W 075°08'0 0.0
2015-Jul-26 05:33N 39°57' W 075°08'0 0.0
2015-Jul-26 04:33N 39°57' W 075°08'0 0.0
2015-Jul-26 03:33N 39°57' W 075°08'0 0.0
2015-Jul-26 02:33N 39°57' W 075°08'0 0.0
2015-Jul-26 01:33N 39°57' W 075°08'0 0.0
2015-Jul-26 00:33N 39°57' W 075°08'0 0.0
2015-Jul-25 23:33N 39°57' W 075°08'0 0.0
2015-Jul-25 22:33N 39°57' W 075°08'0 0.0
2015-Jul-25 21:33N 39°57' W 075°08'0 0.1
2015-Jul-25 20:33N 39°57' W 075°08'0 0.0
2015-Jul-25 19:33N 39°57' W 075°08'0 0.0
2015-Jul-25 18:33N 39°57' W 075°08'0 0.0
2015-Jul-25 17:33N 39°57' W 075°08'0 0.0
2015-Jul-25 16:33N 39°57' W 075°08'0 0.0
2015-Jul-25 15:33N 39°57' W 075°08'0 0.0
2015-Jul-25 14:33N 39°57' W 075°08'0 0.0
2015-Jul-25 13:33N 39°57' W 075°08'0 0.0
2015-Jul-25 12:33N 39°57' W 075°08'0 0.0
2015-Jul-25 11:33N 39°57' W 075°08'0 0.0
2015-Jul-25 10:33N 39°57' W 075°08'0 0.0
2015-Jul-25 09:33N 39°57' W 075°08'0 0.0
2015-Jul-25 08:33N 39°57' W 075°08'0 0.0
2015-Jul-25 07:33N 39°57' W 075°08'0 0.0
2015-Jul-25 06:33N 39°57' W 075°08'0 0.0
2015-Jul-25 05:33N 39°57' W 075°08'0 0.0
2015-Jul-25 04:33N 39°57' W 075°08'0 0.0
2015-Jul-25 03:33N 39°57' W 075°08'0 0.0
2015-Jul-25 02:33N 39°57' W 075°08'0 0.0
2015-Jul-25 01:33N 39°57' W 075°08'0 0.0
2015-Jul-25 00:33N 39°57' W 075°08'0 0.0
2015-Jul-24 23:33N 39°57' W 075°08'0 0.0
2015-Jul-24 22:33N 39°57' W 075°08'0 0.0
2015-Jul-24 21:33N 39°57' W 075°08'0 0.0
2015-Jul-24 20:33N 39°57' W 075°08'0 0.0
2015-Jul-24 19:33N 39°57' W 075°08'0 0.0
2015-Jul-24 18:33N 39°57' W 075°08'0 0.0
2015-Jul-24 17:33N 39°57' W 075°08'0 0.0
2015-Jul-24 16:33N 39°57' W 075°08'0 0.0
2015-Jul-24 15:33N 39°57' W 075°08'0 0.0
2015-Jul-24 14:33N 39°57' W 075°08'0 0.0
2015-Jul-24 13:33N 39°57' W 075°08'0 0.0
2015-Jul-24 12:33N 39°57' W 075°08'0 0.0
2015-Jul-24 11:33N 39°57' W 075°08'0 0.0
2015-Jul-24 10:33N 39°57' W 075°08'0 0.0
2015-Jul-24 09:33N 39°57' W 075°08'1 0.6
2015-Jul-24 08:33N 39°57' W 075°08'4 4.4
2015-Jul-24 07:33N 39°53' W 075°10'4 4.4
2015-Jul-24 06:33N 39°51' W 075°16'4 3.5
2015-Jul-24 05:33N 39°51' W 075°20'2 1.7
2015-Jul-24 04:33N 39°50' W 075°22'0 0.2
2015-Jul-24 03:33N 39°49' W 075°22'0 0.2
2015-Jul-24 02:33N 39°50' W 075°22'0 0.2
2015-Jul-24 01:33N 39°49' W 075°22'0 0.2
2015-Jul-24 00:33N 39°50' W 075°22'3 3.0
2015-Jul-23 23:33N 39°48' W 075°25'1 1.1
2015-Jul-23 22:33N 39°49' W 075°24'2 1.9
2015-Jul-23 21:33N 39°49' W 075°22'3 3.0
2015-Jul-23 20:33N 39°48' W 075°25'0 0.0
2015-Jul-23 19:33N 39°48' W 075°25'0 0.0
2015-Jul-23 18:33N 39°48' W 075°25'0 0.0
2015-Jul-23 17:33N 39°48' W 075°25'0 0.0
2015-Jul-23 16:33N 39°48' W 075°25'0 0.0
2015-Jul-23 15:33N 39°48' W 075°25'0 0.0
2015-Jul-23 14:33N 39°48' W 075°25'0 0.0
2015-Jul-23 13:33N 39°48' W 075°25'0 0.4
2015-Jul-23 12:33N 39°48' W 075°25'0 0.2
2015-Jul-23 11:33N 39°49' W 075°25'1 0.9
2015-Jul-23 10:33N 39°49' W 075°24'2 1.6
2015-Jul-23 09:33N 39°49' W 075°22'3 2.7
2015-Jul-23 08:33N 39°48' W 075°25'0 0.0
2015-Jul-23 07:33N 39°48' W 075°25'0 0.1
2015-Jul-23 06:33N 39°49' W 075°25'0 0.0
2015-Jul-23 05:33N 39°49' W 075°25'1 0.5
2015-Jul-23 04:33N 39°48' W 075°24'1 0.5
2015-Jul-23 03:33N 39°49' W 075°25'0 0.0
2015-Jul-23 02:33N 39°49' W 075°25'1 1.3
2015-Jul-23 01:33N 39°49' W 075°23'1 1.4
2015-Jul-23 00:33N 39°48' W 075°25'0 0.1
2015-Jul-22 23:33N 39°49' W 075°25'0 0.3
2015-Jul-22 22:33N 39°49' W 075°25'2 2.0
2015-Jul-22 21:33N 39°50' W 075°22'2 2.4
2015-Jul-22 20:33N 39°48' W 075°25'0 0.4
2015-Jul-22 19:33N 39°48' W 075°24'0 0.4
2015-Jul-22 18:33N 39°48' W 075°25'0 0.0
2015-Jul-22 17:33N 39°48' W 075°25'0 0.0
2015-Jul-22 16:33N 39°48' W 075°25'0 0.0
2015-Jul-22 15:33N 39°48' W 075°25'0 0.0
2015-Jul-22 14:33N 39°48' W 075°25'0 0.0
2015-Jul-22 13:33N 39°48' W 075°25'0 0.0
2015-Jul-22 12:33N 39°48' W 075°25'0 0.0
2015-Jul-22 11:33N 39°48' W 075°25'1 0.5
2015-Jul-22 10:33N 39°49' W 075°24'1 0.6
2015-Jul-22 09:33N 39°48' W 075°24'1 0.6
2015-Jul-22 08:33N 39°48' W 075°25'0 0.1
2015-Jul-22 07:33N 39°48' W 075°25'0 0.0
2015-Jul-22 06:33N 39°48' W 075°25'0 0.3
2015-Jul-22 05:33N 39°49' W 075°25'1 0.7
2015-Jul-22 04:33N 39°48' W 075°25'1 0.7
2015-Jul-22 03:33N 39°49' W 075°25'0 0.1
2015-Jul-22 02:33N 39°49' W 075°25'1 0.7
2015-Jul-22 01:33N 39°49' W 075°24'1 1.3
2015-Jul-22 00:33N 39°48' W 075°25'1 0.7
2015-Jul-21 23:33N 39°49' W 075°25'0 0.4
2015-Jul-21 22:33N 39°49' W 075°24'2 2.2
2015-Jul-21 21:33N 39°49' W 075°22'3 2.6
2015-Jul-21 20:33N 39°49' W 075°25'0 0.1
2015-Jul-21 19:33N 39°48' W 075°25'0 0.1
2015-Jul-21 18:33N 39°49' W 075°25'0 0.0
2015-Jul-21 17:33N 39°49' W 075°25'0 0.0
2015-Jul-21 16:33N 39°49' W 075°25'0 0.0
2015-Jul-21 15:33N 39°49' W 075°25'0 0.0
2015-Jul-21 14:33N 39°49' W 075°25'0 0.0
2015-Jul-21 13:33N 39°49' W 075°25'0 0.0
2015-Jul-21 12:33N 39°49' W 075°25'0 0.2
2015-Jul-21 11:33N 39°48' W 075°25'2 2.2
2015-Jul-21 10:33N 39°50' W 075°23'1 0.7
2015-Jul-21 09:33N 39°49' W 075°22'3 2.8
2015-Jul-21 08:33N 39°48' W 075°25'0 0.1
2015-Jul-21 07:33N 39°48' W 075°25'1 0.6
2015-Jul-21 06:33N 39°49' W 075°24'1 0.6
2015-Jul-21 05:33N 39°48' W 075°25'0 0.0
2015-Jul-21 04:33N 39°48' W 075°25'0 0.1
2015-Jul-21 03:33N 39°48' W 075°25'0 0.0
2015-Jul-21 02:33N 39°48' W 075°25'0 0.0
2015-Jul-21 01:33N 39°48' W 075°25'0 0.1
2015-Jul-21 00:33N 39°48' W 075°25'0 0.1
2015-Jul-20 23:33N 39°48' W 075°25'0 0.0
2015-Jul-20 22:33N 39°48' W 075°25'1 1.2
2015-Jul-20 21:33N 39°49' W 075°24'1 1.2
2015-Jul-20 20:33N 39°48' W 075°25'0 0.0
2015-Jul-20 19:33N 39°48' W 075°25'0 0.0
2015-Jul-20 18:33N 39°48' W 075°25'0 0.0
2015-Jul-20 17:33N 39°48' W 075°25'0 0.0
2015-Jul-20 16:33N 39°48' W 075°25'0 0.0
2015-Jul-20 15:33N 39°48' W 075°25'0 0.1
2015-Jul-20 14:33N 39°48' W 075°25'0 0.2
2015-Jul-20 13:33N 39°48' W 075°25'0 0.2
2015-Jul-20 12:33N 39°48' W 075°25'0 0.0
2015-Jul-20 11:33N 39°48' W 075°25'1 1.2
2015-Jul-20 10:33N 39°49' W 075°24'1 0.7
2015-Jul-20 09:33N 39°48' W 075°24'0 0.5
2015-Jul-20 08:33N 39°48' W 075°25'0 0.1
2015-Jul-20 07:33N 39°48' W 075°25'1 1.2
2015-Jul-20 06:33N 39°49' W 075°24'1 0.8
2015-Jul-20 05:33N 39°49' W 075°25'0 0.4
2015-Jul-20 04:33N 39°48' W 075°25'0 0.0
2015-Jul-20 03:33N 39°48' W 075°25'1 0.7
2015-Jul-20 02:33N 39°49' W 075°24'1 0.7
2015-Jul-20 01:33N 39°48' W 075°25'0 0.0
2015-Jul-20 00:33N 39°48' W 075°25'0 0.0
2015-Jul-19 23:33N 39°48' W 075°25'  

Dump ship's entire track history